sensor_id;sensor_type;location;lat;lon;timestamp;pressure;altitude;pressure_sealevel;temperature;humidity
74466;BME280;62916;50.044;15.938;2022-09-03T00:00:22;99191.30;;;25.37;35.66
74466;BME280;62916;50.044;15.938;2022-09-03T00:03:01;99191.17;;;25.38;35.57
74466;BME280;62916;50.044;15.938;2022-09-03T00:05:38;99193.88;;;25.37;35.36
74466;BME280;62916;50.044;15.938;2022-09-03T00:08:15;99197.63;;;25.34;35.33
74466;BME280;62916;50.044;15.938;2022-09-03T00:10:53;99193.89;;;25.32;35.39
74466;BME280;62916;50.044;15.938;2022-09-03T00:13:29;99192.52;;;25.30;35.45
74466;BME280;62916;50.044;15.938;2022-09-03T00:16:04;99189.02;;;25.29;35.36
74466;BME280;62916;50.044;15.938;2022-09-03T00:18:44;99194.03;;;25.29;35.45
74466;BME280;62916;50.044;15.938;2022-09-03T00:21:34;99192.68;;;25.28;35.45
74466;BME280;62916;50.044;15.938;2022-09-03T00:24:10;99193.66;;;25.26;35.43
74466;BME280;62916;50.044;15.938;2022-09-03T00:26:46;99193.27;;;25.23;35.28
74466;BME280;62916;50.044;15.938;2022-09-03T00:29:22;99193.85;;;25.22;35.41
74466;BME280;62916;50.044;15.938;2022-09-03T00:31:52;99186.92;;;25.21;35.37
74466;BME280;62916;50.044;15.938;2022-09-03T00:34:30;99187.39;;;25.16;35.42
74466;BME280;62916;50.044;15.938;2022-09-03T00:37:03;99182.70;;;25.15;35.49
74466;BME280;62916;50.044;15.938;2022-09-03T00:39:43;99177.43;;;25.12;35.45
74466;BME280;62916;50.044;15.938;2022-09-03T00:42:34;99180.75;;;25.11;35.50
74466;BME280;62916;50.044;15.938;2022-09-03T00:45:19;99185.25;;;25.11;35.55
74466;BME280;62916;50.044;15.938;2022-09-03T00:48:08;99187.14;;;25.12;35.32
74466;BME280;62916;50.044;15.938;2022-09-03T00:50:56;99185.63;;;25.15;35.44
74466;BME280;62916;50.044;15.938;2022-09-03T00:53:36;99179.41;;;25.13;35.27
74466;BME280;62916;50.044;15.938;2022-09-03T00:56:16;99180.58;;;25.16;35.43
74466;BME280;62916;50.044;15.938;2022-09-03T00:58:58;99180.87;;;25.17;35.50
74466;BME280;62916;50.044;15.938;2022-09-03T01:01:41;99179.16;;;25.17;35.35
74466;BME280;62916;50.044;15.938;2022-09-03T01:04:44;99176.42;;;25.16;35.36
74466;BME280;62916;50.044;15.938;2022-09-03T01:07:26;99175.34;;;25.15;35.43
74466;BME280;62916;50.044;15.938;2022-09-03T01:10:12;99178.34;;;25.15;35.52
74466;BME280;62916;50.044;15.938;2022-09-03T01:12:51;99180.51;;;25.14;35.33
74466;BME280;62916;50.044;15.938;2022-09-03T01:15:32;99181.21;;;25.13;35.28
74466;BME280;62916;50.044;15.938;2022-09-03T01:18:14;99174.55;;;25.13;35.34
74466;BME280;62916;50.044;15.938;2022-09-03T01:21:02;99172.88;;;25.14;35.39
74466;BME280;62916;50.044;15.938;2022-09-03T01:23:56;99176.70;;;25.12;35.41
74466;BME280;62916;50.044;15.938;2022-09-03T01:26:58;99168.86;;;25.11;35.35
74466;BME280;62916;50.044;15.938;2022-09-03T01:29:38;99171.23;;;25.09;35.36
74466;BME280;62916;50.044;15.938;2022-09-03T01:32:18;99172.45;;;25.09;35.48
74466;BME280;62916;50.044;15.938;2022-09-03T01:34:58;99164.91;;;25.07;35.37
74466;BME280;62916;50.044;15.938;2022-09-03T01:37:39;99172.78;;;25.05;35.39
74466;BME280;62916;50.044;15.938;2022-09-03T01:40:20;99174.91;;;25.01;35.35
74466;BME280;62916;50.044;15.938;2022-09-03T01:43:02;99174.25;;;24.99;35.46
74466;BME280;62916;50.044;15.938;2022-09-03T01:45:42;99176.13;;;24.99;35.48
74466;BME280;62916;50.044;15.938;2022-09-03T01:48:34;99178.09;;;24.98;35.50
74466;BME280;62916;50.044;15.938;2022-09-03T01:51:15;99172.98;;;24.98;35.28
74466;BME280;62916;50.044;15.938;2022-09-03T01:54:15;99175.35;;;24.95;35.37
74466;BME280;62916;50.044;15.938;2022-09-03T01:57:14;99173.88;;;24.93;35.28
74466;BME280;62916;50.044;15.938;2022-09-03T02:00:08;99179.88;;;24.91;35.22
74466;BME280;62916;50.044;15.938;2022-09-03T02:02:43;99180.05;;;24.91;35.23
74466;BME280;62916;50.044;15.938;2022-09-03T02:05:19;99180.80;;;24.89;35.23
74466;BME280;62916;50.044;15.938;2022-09-03T02:07:57;99185.60;;;24.88;35.21
74466;BME280;62916;50.044;15.938;2022-09-03T02:10:33;99179.91;;;24.86;35.30
74466;BME280;62916;50.044;15.938;2022-09-03T02:13:11;99178.31;;;24.82;35.14
74466;BME280;62916;50.044;15.938;2022-09-03T02:15:47;99183.45;;;24.81;35.10
74466;BME280;62916;50.044;15.938;2022-09-03T02:18:20;99184.23;;;24.78;35.11
74466;BME280;62916;50.044;15.938;2022-09-03T02:20:54;99186.06;;;24.77;35.08
74466;BME280;62916;50.044;15.938;2022-09-03T02:23:26;99179.14;;;24.72;35.14
74466;BME280;62916;50.044;15.938;2022-09-03T02:25:58;99184.38;;;24.73;35.14
74466;BME280;62916;50.044;15.938;2022-09-03T02:28:31;99182.43;;;24.71;35.22
74466;BME280;62916;50.044;15.938;2022-09-03T02:31:02;99180.34;;;24.71;35.25
74466;BME280;62916;50.044;15.938;2022-09-03T02:33:36;99175.40;;;24.70;35.10
74466;BME280;62916;50.044;15.938;2022-09-03T02:36:11;99173.35;;;24.67;35.06
74466;BME280;62916;50.044;15.938;2022-09-03T02:38:43;99174.88;;;24.64;35.19
74466;BME280;62916;50.044;15.938;2022-09-03T02:41:14;99172.08;;;24.63;35.23
74466;BME280;62916;50.044;15.938;2022-09-03T02:43:48;99172.03;;;24.62;35.09
74466;BME280;62916;50.044;15.938;2022-09-03T02:46:24;99167.80;;;24.62;35.24
74466;BME280;62916;50.044;15.938;2022-09-03T02:48:56;99171.41;;;24.61;35.25
74466;BME280;62916;50.044;15.938;2022-09-03T02:51:27;99176.58;;;24.60;35.13
74466;BME280;62916;50.044;15.938;2022-09-03T02:54:01;99182.52;;;24.59;35.23
74466;BME280;62916;50.044;15.938;2022-09-03T02:56:32;99175.83;;;24.57;35.07
74466;BME280;62916;50.044;15.938;2022-09-03T02:59:05;99176.86;;;24.54;35.16
74466;BME280;62916;50.044;15.938;2022-09-03T03:01:36;99179.98;;;24.56;35.24
74466;BME280;62916;50.044;15.938;2022-09-03T03:04:10;99177.40;;;24.56;35.13
74466;BME280;62916;50.044;15.938;2022-09-03T03:06:41;99178.58;;;24.55;35.07
74466;BME280;62916;50.044;15.938;2022-09-03T03:09:16;99173.54;;;24.52;35.05
74466;BME280;62916;50.044;15.938;2022-09-03T03:11:48;99180.35;;;24.51;34.96
74466;BME280;62916;50.044;15.938;2022-09-03T03:14:19;99179.98;;;24.47;35.01
74466;BME280;62916;50.044;15.938;2022-09-03T03:16:51;99174.55;;;24.46;35.06
74466;BME280;62916;50.044;15.938;2022-09-03T03:19:21;99170.95;;;24.45;35.08
74466;BME280;62916;50.044;15.938;2022-09-03T03:21:52;99172.58;;;24.43;35.04
74466;BME280;62916;50.044;15.938;2022-09-03T03:24:23;99171.15;;;24.41;35.04
74466;BME280;62916;50.044;15.938;2022-09-03T03:26:57;99172.38;;;24.39;34.99
74466;BME280;62916;50.044;15.938;2022-09-03T03:29:27;99174.81;;;24.38;35.08
74466;BME280;62916;50.044;15.938;2022-09-03T03:31:58;99175.92;;;24.37;35.07
74466;BME280;62916;50.044;15.938;2022-09-03T03:34:29;99183.70;;;24.37;35.09
74466;BME280;62916;50.044;15.938;2022-09-03T03:37:00;99187.94;;;24.34;35.03
74466;BME280;62916;50.044;15.938;2022-09-03T03:39:30;99189.00;;;24.35;35.29
74466;BME280;62916;50.044;15.938;2022-09-03T03:42:01;99184.54;;;24.34;35.22
74466;BME280;62916;50.044;15.938;2022-09-03T03:44:32;99178.47;;;24.34;35.05
74466;BME280;62916;50.044;15.938;2022-09-03T03:47:03;99177.15;;;24.33;34.94
74466;BME280;62916;50.044;15.938;2022-09-03T03:49:34;99176.61;;;24.32;35.05
74466;BME280;62916;50.044;15.938;2022-09-03T03:52:05;99178.91;;;24.31;35.00
74466;BME280;62916;50.044;15.938;2022-09-03T03:54:36;99181.23;;;24.30;35.04
74466;BME280;62916;50.044;15.938;2022-09-03T03:57:07;99182.94;;;24.28;35.06
74466;BME280;62916;50.044;15.938;2022-09-03T03:59:38;99183.53;;;24.27;35.09
74466;BME280;62916;50.044;15.938;2022-09-03T04:02:08;99181.17;;;24.27;35.21
74466;BME280;62916;50.044;15.938;2022-09-03T04:04:40;99179.35;;;24.30;35.12
74466;BME280;62916;50.044;15.938;2022-09-03T04:07:10;99175.02;;;24.29;35.11
74466;BME280;62916;50.044;15.938;2022-09-03T04:09:41;99178.85;;;24.31;34.99
74466;BME280;62916;50.044;15.938;2022-09-03T04:12:12;99180.55;;;24.31;34.97
74466;BME280;62916;50.044;15.938;2022-09-03T04:14:43;99183.72;;;24.30;34.91
74466;BME280;62916;50.044;15.938;2022-09-03T04:17:14;99184.66;;;24.29;35.02
74466;BME280;62916;50.044;15.938;2022-09-03T04:19:44;99184.95;;;24.28;34.98
74466;BME280;62916;50.044;15.938;2022-09-03T04:22:16;99187.44;;;24.27;34.90
74466;BME280;62916;50.044;15.938;2022-09-03T04:24:48;99182.67;;;24.26;35.10
74466;BME280;62916;50.044;15.938;2022-09-03T04:27:19;99182.17;;;24.24;34.96
74466;BME280;62916;50.044;15.938;2022-09-03T04:29:50;99180.98;;;24.22;34.94
74466;BME280;62916;50.044;15.938;2022-09-03T04:32:21;99180.13;;;24.21;34.95
74466;BME280;62916;50.044;15.938;2022-09-03T04:35:10;99174.39;;;24.19;34.96
74466;BME280;62916;50.044;15.938;2022-09-03T04:37:40;99172.66;;;24.19;34.97
74466;BME280;62916;50.044;15.938;2022-09-03T04:40:12;99171.63;;;24.17;34.96
74466;BME280;62916;50.044;15.938;2022-09-03T04:42:43;99165.37;;;24.16;34.87
74466;BME280;62916;50.044;15.938;2022-09-03T04:45:13;99166.77;;;24.15;34.94
74466;BME280;62916;50.044;15.938;2022-09-03T04:47:56;99168.02;;;24.14;35.05
74466;BME280;62916;50.044;15.938;2022-09-03T04:50:28;99169.34;;;24.15;34.99
74466;BME280;62916;50.044;15.938;2022-09-03T04:53:02;99176.50;;;24.16;34.99
74466;BME280;62916;50.044;15.938;2022-09-03T04:55:37;99178.73;;;24.19;34.68
74466;BME280;62916;50.044;15.938;2022-09-03T04:58:07;99175.84;;;24.19;34.56
74466;BME280;62916;50.044;15.938;2022-09-03T05:00:39;99182.98;;;24.24;34.77
74466;BME280;62916;50.044;15.938;2022-09-03T05:03:10;99182.98;;;24.25;34.57
74466;BME280;62916;50.044;15.938;2022-09-03T05:05:40;99183.48;;;24.28;34.58
74466;BME280;62916;50.044;15.938;2022-09-03T05:08:11;99183.95;;;24.31;34.58
74466;BME280;62916;50.044;15.938;2022-09-03T05:10:42;99183.63;;;24.33;34.53
74466;BME280;62916;50.044;15.938;2022-09-03T05:13:13;99183.52;;;24.33;34.51
74466;BME280;62916;50.044;15.938;2022-09-03T05:15:44;99178.20;;;24.31;34.49
74466;BME280;62916;50.044;15.938;2022-09-03T05:18:15;99179.36;;;24.32;34.49
74466;BME280;62916;50.044;15.938;2022-09-03T05:20:46;99183.36;;;24.33;34.38
74466;BME280;62916;50.044;15.938;2022-09-03T05:23:16;99176.55;;;24.33;34.56
74466;BME280;62916;50.044;15.938;2022-09-03T05:25:56;99172.26;;;24.33;34.67
74466;BME280;62916;50.044;15.938;2022-09-03T05:28:26;99167.88;;;24.32;34.70
74466;BME280;62916;50.044;15.938;2022-09-03T05:31:03;99170.52;;;24.30;34.77
74466;BME280;62916;50.044;15.938;2022-09-03T05:33:36;99171.73;;;24.32;34.85
74466;BME280;62916;50.044;15.938;2022-09-03T05:36:09;99170.81;;;24.33;34.75
74466;BME280;62916;50.044;15.938;2022-09-03T05:38:41;99171.39;;;24.36;34.76
74466;BME280;62916;50.044;15.938;2022-09-03T05:41:13;99174.20;;;24.35;34.82
74466;BME280;62916;50.044;15.938;2022-09-03T05:43:48;99177.37;;;24.35;34.94
74466;BME280;62916;50.044;15.938;2022-09-03T05:46:24;99174.54;;;24.35;34.97
74466;BME280;62916;50.044;15.938;2022-09-03T05:49:01;99177.73;;;24.36;34.95
74466;BME280;62916;50.044;15.938;2022-09-03T05:51:33;99174.90;;;24.36;35.13
74466;BME280;62916;50.044;15.938;2022-09-03T05:54:04;99177.67;;;24.40;34.87
74466;BME280;62916;50.044;15.938;2022-09-03T05:56:38;99177.33;;;24.44;34.92
74466;BME280;62916;50.044;15.938;2022-09-03T05:59:10;99176.14;;;24.49;34.93
74466;BME280;62916;50.044;15.938;2022-09-03T06:01:43;99177.34;;;24.52;34.88
74466;BME280;62916;50.044;15.938;2022-09-03T06:04:20;99179.31;;;24.55;34.89
74466;BME280;62916;50.044;15.938;2022-09-03T06:06:51;99179.00;;;24.57;34.91
74466;BME280;62916;50.044;15.938;2022-09-03T06:09:23;99180.75;;;24.59;34.96
74466;BME280;62916;50.044;15.938;2022-09-03T06:11:54;99176.29;;;24.59;34.90
74466;BME280;62916;50.044;15.938;2022-09-03T06:14:27;99174.89;;;24.58;35.02
74466;BME280;62916;50.044;15.938;2022-09-03T06:16:58;99172.09;;;24.59;35.13
74466;BME280;62916;50.044;15.938;2022-09-03T06:19:29;99172.02;;;24.59;35.25
74466;BME280;62916;50.044;15.938;2022-09-03T06:22:00;99169.21;;;24.60;35.29
74466;BME280;62916;50.044;15.938;2022-09-03T06:24:31;99164.20;;;24.63;35.33
74466;BME280;62916;50.044;15.938;2022-09-03T06:27:02;99171.86;;;24.64;35.44
74466;BME280;62916;50.044;15.938;2022-09-03T06:29:34;99172.13;;;24.65;35.26
74466;BME280;62916;50.044;15.938;2022-09-03T06:32:05;99171.92;;;24.65;35.40
74466;BME280;62916;50.044;15.938;2022-09-03T06:34:36;99169.34;;;24.68;35.52
74466;BME280;62916;50.044;15.938;2022-09-03T06:37:07;99167.31;;;24.72;35.31
74466;BME280;62916;50.044;15.938;2022-09-03T06:39:38;99168.19;;;24.71;35.47
74466;BME280;62916;50.044;15.938;2022-09-03T06:42:09;99168.13;;;24.70;35.39
74466;BME280;62916;50.044;15.938;2022-09-03T06:44:40;99162.66;;;24.69;35.43
74466;BME280;62916;50.044;15.938;2022-09-03T06:47:13;99162.92;;;24.69;35.51
74466;BME280;62916;50.044;15.938;2022-09-03T06:49:44;99165.13;;;24.70;35.42
74466;BME280;62916;50.044;15.938;2022-09-03T06:52:15;99167.63;;;24.70;35.43
74466;BME280;62916;50.044;15.938;2022-09-03T06:54:46;99171.52;;;24.70;35.46
74466;BME280;62916;50.044;15.938;2022-09-03T06:57:17;99176.16;;;24.70;35.49
74466;BME280;62916;50.044;15.938;2022-09-03T06:59:48;99179.79;;;24.72;35.41
74466;BME280;62916;50.044;15.938;2022-09-03T07:02:19;99176.30;;;24.71;35.45
74466;BME280;62916;50.044;15.938;2022-09-03T07:04:51;99176.80;;;24.70;35.52
74466;BME280;62916;50.044;15.938;2022-09-03T07:07:22;99172.83;;;24.70;35.55
74466;BME280;62916;50.044;15.938;2022-09-03T07:09:53;99171.05;;;24.70;35.41
74466;BME280;62916;50.044;15.938;2022-09-03T07:12:24;99170.32;;;24.70;35.46
74466;BME280;62916;50.044;15.938;2022-09-03T07:14:54;99171.27;;;24.69;35.47
74466;BME280;62916;50.044;15.938;2022-09-03T07:17:25;99176.73;;;24.70;35.52
74466;BME280;62916;50.044;15.938;2022-09-03T07:19:56;99176.22;;;24.72;35.50
74466;BME280;62916;50.044;15.938;2022-09-03T07:22:27;99174.45;;;24.72;35.63
74466;BME280;62916;50.044;15.938;2022-09-03T07:25:00;99166.67;;;24.68;35.74
74466;BME280;62916;50.044;15.938;2022-09-03T07:27:31;99164.20;;;24.69;35.51
74466;BME280;62916;50.044;15.938;2022-09-03T07:30:05;99168.16;;;24.71;35.69
74466;BME280;62916;50.044;15.938;2022-09-03T07:32:38;99170.55;;;24.72;35.56
74466;BME280;62916;50.044;15.938;2022-09-03T07:35:10;99172.76;;;24.70;35.52
74466;BME280;62916;50.044;15.938;2022-09-03T07:37:42;99173.82;;;24.72;35.65
74466;BME280;62916;50.044;15.938;2022-09-03T07:40:13;99175.23;;;24.76;35.72
74466;BME280;62916;50.044;15.938;2022-09-03T07:42:47;99178.12;;;24.79;35.60
74466;BME280;62916;50.044;15.938;2022-09-03T07:45:23;99180.42;;;24.82;35.63
74466;BME280;62916;50.044;15.938;2022-09-03T07:47:56;99176.48;;;24.83;35.82
74466;BME280;62916;50.044;15.938;2022-09-03T07:50:27;99173.55;;;24.85;35.87
74466;BME280;62916;50.044;15.938;2022-09-03T07:53:01;99176.76;;;24.88;35.90
74466;BME280;62916;50.044;15.938;2022-09-03T07:55:32;99168.77;;;24.91;35.81
74466;BME280;62916;50.044;15.938;2022-09-03T07:58:02;99164.74;;;24.93;35.90
74466;BME280;62916;50.044;15.938;2022-09-03T08:00:35;99158.20;;;24.94;35.91
74466;BME280;62916;50.044;15.938;2022-09-03T08:03:07;99164.52;;;24.96;36.05
74466;BME280;62916;50.044;15.938;2022-09-03T08:05:39;99162.14;;;24.99;35.99
74466;BME280;62916;50.044;15.938;2022-09-03T08:08:10;99165.18;;;25.03;35.91
74466;BME280;62916;50.044;15.938;2022-09-03T08:10:44;99165.77;;;25.06;36.04
74466;BME280;62916;50.044;15.938;2022-09-03T08:13:16;99158.98;;;25.09;35.92
74466;BME280;62916;50.044;15.938;2022-09-03T08:15:55;99160.21;;;25.11;35.94
74466;BME280;62916;50.044;15.938;2022-09-03T08:18:28;99160.27;;;25.11;36.03
74466;BME280;62916;50.044;15.938;2022-09-03T08:21:08;99161.15;;;25.10;36.12
74466;BME280;62916;50.044;15.938;2022-09-03T08:23:42;99161.61;;;25.12;35.97
74466;BME280;62916;50.044;15.938;2022-09-03T08:26:13;99161.27;;;25.09;36.11
74466;BME280;62916;50.044;15.938;2022-09-03T08:28:45;99160.09;;;25.10;35.95
74466;BME280;62916;50.044;15.938;2022-09-03T08:31:20;99157.35;;;25.15;36.12
74466;BME280;62916;50.044;15.938;2022-09-03T08:33:54;99155.59;;;25.18;36.04
74466;BME280;62916;50.044;15.938;2022-09-03T08:36:27;99156.18;;;25.18;36.35
74466;BME280;62916;50.044;15.938;2022-09-03T08:38:59;99156.39;;;25.22;36.09
74466;BME280;62916;50.044;15.938;2022-09-03T08:41:45;99153.23;;;25.25;36.15
74466;BME280;62916;50.044;15.938;2022-09-03T08:44:25;99155.16;;;25.28;36.13
74466;BME280;62916;50.044;15.938;2022-09-03T08:47:01;99155.02;;;25.31;36.13
74466;BME280;62916;50.044;15.938;2022-09-03T08:49:45;99153.76;;;25.28;36.03
74466;BME280;62916;50.044;15.938;2022-09-03T08:52:27;99156.64;;;25.22;36.14
74466;BME280;62916;50.044;15.938;2022-09-03T08:55:06;99160.63;;;25.18;36.22
74466;BME280;62916;50.044;15.938;2022-09-03T08:57:46;99158.08;;;25.19;36.30
74466;BME280;62916;50.044;15.938;2022-09-03T09:00:18;99154.26;;;25.23;36.22
74466;BME280;62916;50.044;15.938;2022-09-03T09:02:57;99152.83;;;25.29;36.16
74466;BME280;62916;50.044;15.938;2022-09-03T09:05:37;99152.38;;;25.33;36.24
74466;BME280;62916;50.044;15.938;2022-09-03T09:08:17;99154.02;;;25.36;36.11
74466;BME280;62916;50.044;15.938;2022-09-03T09:10:59;99159.19;;;25.39;36.17
74466;BME280;62916;50.044;15.938;2022-09-03T09:13:36;99158.98;;;25.40;36.03
74466;BME280;62916;50.044;15.938;2022-09-03T09:16:17;99155.05;;;25.42;36.21
74466;BME280;62916;50.044;15.938;2022-09-03T09:19:00;99152.79;;;25.42;35.95
74466;BME280;62916;50.044;15.938;2022-09-03T09:21:35;99153.78;;;25.42;36.11
74466;BME280;62916;50.044;15.938;2022-09-03T09:24:16;99149.05;;;25.42;35.94
74466;BME280;62916;50.044;15.938;2022-09-03T09:26:55;99156.77;;;25.42;35.71
74466;BME280;62916;50.044;15.938;2022-09-03T09:29:31;99151.20;;;25.43;35.97
74466;BME280;62916;50.044;15.938;2022-09-03T09:32:03;99154.89;;;25.49;35.92
74466;BME280;62916;50.044;15.938;2022-09-03T09:34:37;99153.31;;;25.52;35.75
74466;BME280;62916;50.044;15.938;2022-09-03T09:37:11;99149.13;;;25.55;35.67
74466;BME280;62916;50.044;15.938;2022-09-03T09:39:55;99152.63;;;25.58;35.76
74466;BME280;62916;50.044;15.938;2022-09-03T09:42:27;99150.09;;;25.61;35.77
74466;BME280;62916;50.044;15.938;2022-09-03T09:45:09;99150.52;;;25.65;35.75
74466;BME280;62916;50.044;15.938;2022-09-03T09:47:40;99144.49;;;25.67;35.65
74466;BME280;62916;50.044;15.938;2022-09-03T09:50:19;99139.98;;;25.70;35.73
74466;BME280;62916;50.044;15.938;2022-09-03T09:53:02;99139.34;;;25.75;35.75
74466;BME280;62916;50.044;15.938;2022-09-03T09:55:37;99139.89;;;25.79;35.76
74466;BME280;62916;50.044;15.938;2022-09-03T09:58:19;99142.43;;;25.85;35.70
74466;BME280;62916;50.044;15.938;2022-09-03T10:01:01;99140.42;;;25.86;35.88
74466;BME280;62916;50.044;15.938;2022-09-03T10:03:34;99135.71;;;25.88;35.60
74466;BME280;62916;50.044;15.938;2022-09-03T10:06:08;99134.94;;;25.89;35.79
74466;BME280;62916;50.044;15.938;2022-09-03T10:09:08;99132.05;;;25.92;35.99
74466;BME280;62916;50.044;15.938;2022-09-03T10:11:42;99132.09;;;25.96;35.64
74466;BME280;62916;50.044;15.938;2022-09-03T10:14:19;99123.39;;;25.98;35.91
74466;BME280;62916;50.044;15.938;2022-09-03T10:16:59;99124.48;;;25.99;35.87
74466;BME280;62916;50.044;15.938;2022-09-03T10:19:42;99117.14;;;26.01;35.69
74466;BME280;62916;50.044;15.938;2022-09-03T10:22:39;99120.52;;;26.03;35.98
74466;BME280;62916;50.044;15.938;2022-09-03T10:25:28;99116.65;;;26.06;36.09
74466;BME280;62916;50.044;15.938;2022-09-03T10:28:01;99114.05;;;26.11;35.89
74466;BME280;62916;50.044;15.938;2022-09-03T10:30:43;99108.91;;;26.15;36.08
74466;BME280;62916;50.044;15.938;2022-09-03T10:33:23;99111.20;;;26.19;36.14
74466;BME280;62916;50.044;15.938;2022-09-03T10:36:04;99112.59;;;26.24;35.89
74466;BME280;62916;50.044;15.938;2022-09-03T10:38:37;99111.48;;;26.25;36.10
74466;BME280;62916;50.044;15.938;2022-09-03T10:41:19;99111.20;;;26.26;35.82
74466;BME280;62916;50.044;15.938;2022-09-03T10:44:06;99106.40;;;26.26;35.92
74466;BME280;62916;50.044;15.938;2022-09-03T10:46:49;99103.90;;;26.29;35.95
74466;BME280;62916;50.044;15.938;2022-09-03T10:49:35;99094.59;;;26.34;35.97
74466;BME280;62916;50.044;15.938;2022-09-03T10:52:17;99103.79;;;26.38;35.92
74466;BME280;62916;50.044;15.938;2022-09-03T10:55:03;99096.56;;;26.35;35.89
74466;BME280;62916;50.044;15.938;2022-09-03T10:57:43;99092.19;;;26.33;36.04
74466;BME280;62916;50.044;15.938;2022-09-03T11:00:16;99099.39;;;26.32;35.99
74466;BME280;62916;50.044;15.938;2022-09-03T11:06:02;99090.13;;;26.30;35.87
74466;BME280;62916;50.044;15.938;2022-09-03T11:08:38;99089.75;;;26.33;35.92
74466;BME280;62916;50.044;15.938;2022-09-03T11:11:15;99089.80;;;26.34;35.73
74466;BME280;62916;50.044;15.938;2022-09-03T11:13:52;99085.06;;;26.37;35.78
74466;BME280;62916;50.044;15.938;2022-09-03T11:16:27;99082.60;;;26.39;35.77
74466;BME280;62916;50.044;15.938;2022-09-03T11:19:05;99080.29;;;26.37;35.84
74466;BME280;62916;50.044;15.938;2022-09-03T11:21:37;99081.52;;;26.38;35.63
74466;BME280;62916;50.044;15.938;2022-09-03T11:24:13;99081.27;;;26.40;35.50
74466;BME280;62916;50.044;15.938;2022-09-03T11:26:47;99080.23;;;26.41;35.79
74466;BME280;62916;50.044;15.938;2022-09-03T11:29:28;99079.97;;;26.43;35.92
74466;BME280;62916;50.044;15.938;2022-09-03T11:32:03;99076.48;;;26.44;35.89
74466;BME280;62916;50.044;15.938;2022-09-03T11:34:47;99078.14;;;26.45;35.90
74466;BME280;62916;50.044;15.938;2022-09-03T11:37:21;99074.18;;;26.45;35.79
74466;BME280;62916;50.044;15.938;2022-09-03T11:39:57;99075.13;;;26.48;35.78
74466;BME280;62916;50.044;15.938;2022-09-03T11:42:33;99067.33;;;26.48;35.81
74466;BME280;62916;50.044;15.938;2022-09-03T11:45:35;99067.48;;;26.49;35.72
74466;BME280;62916;50.044;15.938;2022-09-03T11:48:32;99074.06;;;26.50;35.82
74466;BME280;62916;50.044;15.938;2022-09-03T11:51:14;99071.79;;;26.50;35.74
74466;BME280;62916;50.044;15.938;2022-09-03T11:53:56;99077.71;;;26.49;35.77
74466;BME280;62916;50.044;15.938;2022-09-03T11:56:29;99080.28;;;26.48;35.83
74466;BME280;62916;50.044;15.938;2022-09-03T11:59:04;99082.75;;;26.47;35.81
74466;BME280;62916;50.044;15.938;2022-09-03T12:01:37;99075.36;;;26.50;35.63
74466;BME280;62916;50.044;15.938;2022-09-03T12:04:14;99073.65;;;26.55;35.65
74466;BME280;62916;50.044;15.938;2022-09-03T12:07:05;99071.98;;;26.57;35.51
74466;BME280;62916;50.044;15.938;2022-09-03T12:10:05;99066.44;;;26.59;35.36
74466;BME280;62916;50.044;15.938;2022-09-03T12:12:51;99062.71;;;26.59;35.51
74466;BME280;62916;50.044;15.938;2022-09-03T12:15:38;99064.17;;;26.62;35.44
74466;BME280;62916;50.044;15.938;2022-09-03T12:18:17;99061.50;;;26.62;35.33
74466;BME280;62916;50.044;15.938;2022-09-03T12:21:03;99060.55;;;26.65;35.32
74466;BME280;62916;50.044;15.938;2022-09-03T12:23:39;99058.29;;;26.65;35.15
74466;BME280;62916;50.044;15.938;2022-09-03T12:26:13;99061.21;;;26.66;35.48
74466;BME280;62916;50.044;15.938;2022-09-03T12:28:46;99065.60;;;26.66;35.72
74466;BME280;62916;50.044;15.938;2022-09-03T12:31:21;99069.68;;;26.67;35.27
74466;BME280;62916;50.044;15.938;2022-09-03T12:33:55;99063.07;;;26.68;35.33
74466;BME280;62916;50.044;15.938;2022-09-03T12:36:37;99067.48;;;26.70;35.44
74466;BME280;62916;50.044;15.938;2022-09-03T12:39:12;99062.20;;;26.70;35.47
74466;BME280;62916;50.044;15.938;2022-09-03T12:41:57;99065.72;;;26.70;35.35
74466;BME280;62916;50.044;15.938;2022-09-03T12:44:31;99072.00;;;26.71;35.39
74466;BME280;62916;50.044;15.938;2022-09-03T12:47:05;99069.39;;;26.73;35.53
74466;BME280;62916;50.044;15.938;2022-09-03T12:50:04;99066.73;;;26.74;35.04
74466;BME280;62916;50.044;15.938;2022-09-03T12:52:40;99061.70;;;26.74;35.44
74466;BME280;62916;50.044;15.938;2022-09-03T12:55:25;99066.63;;;26.76;35.55
74466;BME280;62916;50.044;15.938;2022-09-03T12:58:02;99065.42;;;26.77;35.25
74466;BME280;62916;50.044;15.938;2022-09-03T13:00:44;99059.05;;;26.79;35.35
74466;BME280;62916;50.044;15.938;2022-09-03T13:03:20;99053.61;;;26.82;35.28
74466;BME280;62916;50.044;15.938;2022-09-03T13:05:56;99050.59;;;26.84;35.39
74466;BME280;62916;50.044;15.938;2022-09-03T13:08:30;99055.42;;;26.86;35.65
74466;BME280;62916;50.044;15.938;2022-09-03T13:11:03;99053.50;;;26.86;35.51
74466;BME280;62916;50.044;15.938;2022-09-03T13:13:37;99051.29;;;26.89;35.40
74466;BME280;62916;50.044;15.938;2022-09-03T13:16:26;99053.48;;;26.91;35.28
74466;BME280;62916;50.044;15.938;2022-09-03T13:19:04;99050.54;;;26.93;35.43
74466;BME280;62916;50.044;15.938;2022-09-03T13:21:43;99054.02;;;26.95;35.03
74466;BME280;62916;50.044;15.938;2022-09-03T13:24:32;99050.00;;;26.97;35.17
74466;BME280;62916;50.044;15.938;2022-09-03T13:27:16;99045.77;;;27.01;34.79
74466;BME280;62916;50.044;15.938;2022-09-03T13:30:02;99043.73;;;27.03;34.94
74466;BME280;62916;50.044;15.938;2022-09-03T13:32:43;99046.36;;;27.04;35.05
74466;BME280;62916;50.044;15.938;2022-09-03T13:35:27;99036.95;;;27.05;34.51
74466;BME280;62916;50.044;15.938;2022-09-03T13:38:06;99041.93;;;27.05;34.67
74466;BME280;62916;50.044;15.938;2022-09-03T13:40:44;99036.34;;;27.06;34.84